createdAt,value
2017-12-25T00:01:58.986Z,101068.19
2017-12-25T00:04:28.773Z,101079.48
2017-12-25T00:06:59.469Z,101082.83
2017-12-25T00:09:28.449Z,101082.28
2017-12-25T00:11:57.348Z,101072.69
2017-12-25T00:17:01.071Z,101072.73
2017-12-25T00:19:30.010Z,101055.05
2017-12-25T00:22:01.046Z,101062.31
2017-12-25T00:24:31.883Z,101059.09
2017-12-25T00:27:01.082Z,101058.72
2017-12-25T00:29:31.240Z,101057.48
2017-12-25T00:32:01.322Z,101056.63
2017-12-25T00:34:30.211Z,101060.07
2017-12-25T00:36:59.554Z,101060.14
2017-12-25T00:39:28.666Z,101048.30
2017-12-25T00:41:58.665Z,101049.60
2017-12-25T00:44:29.308Z,101056.42
2017-12-25T00:46:58.350Z,101045.95
2017-12-25T00:49:29.067Z,101049.77
2017-12-25T00:51:58.003Z,101053.89
2017-12-25T00:54:27.040Z,101053.38
2017-12-25T00:56:57.789Z,101052.56
2017-12-25T01:02:02.422Z,101061.39
2017-12-25T01:04:31.622Z,101063.00
2017-12-25T01:07:03.138Z,101071.45
2017-12-25T01:09:32.937Z,101069.20
2017-12-25T01:12:02.767Z,101071.53
2017-12-25T01:14:31.797Z,101067.67
2017-12-25T01:17:02.530Z,101071.75
2017-12-25T01:19:31.423Z,101066.07
2017-12-25T01:22:02.326Z,101072.91
2017-12-25T01:24:31.217Z,101066.49
2017-12-25T01:27:01.132Z,101062.70
2017-12-25T01:29:31.081Z,101067.00
2017-12-25T01:32:00.042Z,101057.70
2017-12-25T01:34:30.262Z,101062.88
2017-12-25T01:37:00.055Z,101056.99
2017-12-25T01:39:29.074Z,101052.84
2017-12-25T01:41:59.026Z,101046.05
2017-12-25T01:44:28.883Z,101048.17
2017-12-25T01:47:07.013Z,101052.47
2017-12-25T01:49:36.111Z,101055.58
2017-12-25T01:52:05.817Z,101049.68
2017-12-25T01:54:36.289Z,101050.14
2017-12-25T02:00:22.257Z,101053.83
2017-12-25T02:02:51.921Z,101057.23
2017-12-25T02:05:49.224Z,101039.56
2017-12-25T02:11:17.831Z,101028.50
2017-12-25T02:13:46.751Z,101028.81
2017-12-25T02:16:15.502Z,101022.32
2017-12-25T02:18:46.994Z,101025.59
2017-12-25T02:21:16.977Z,101026.91
2017-12-25T02:23:45.919Z,101026.27
2017-12-25T02:26:16.689Z,101021.16
2017-12-25T02:28:45.734Z,101021.73
2017-12-25T02:31:15.571Z,101020.88
2017-12-25T02:33:48.089Z,101020.13
2017-12-25T02:36:18.218Z,101023.92
2017-12-25T02:38:47.957Z,101025.30
2017-12-25T02:43:50.704Z,101015.09
2017-12-25T02:46:20.637Z,101018.45
2017-12-25T02:48:49.732Z,101014.78
2017-12-25T02:51:20.396Z,101009.67
2017-12-25T02:53:49.497Z,101002.19
2017-12-25T02:56:19.475Z,101008.62
2017-12-25T02:58:48.571Z,101015.74
2017-12-25T03:01:17.566Z,101006.88
2017-12-25T03:03:50.246Z,101008.53
2017-12-25T03:06:19.236Z,101006.95
2017-12-25T03:08:48.350Z,101010.75
2017-12-25T03:11:17.258Z,101013.63
2017-12-25T03:13:46.313Z,101014.94
2017-12-25T03:16:15.562Z,101014.86
2017-12-25T03:18:47.465Z,101011.84
2017-12-25T03:21:16.308Z,101016.05
2017-12-25T03:23:45.474Z,101018.35
2017-12-25T03:26:17.149Z,101019.94
2017-12-25T03:28:46.957Z,101023.70
2017-12-25T03:31:15.944Z,101015.24
2017-12-25T03:33:46.704Z,101019.41
2017-12-25T03:36:16.892Z,101019.85
2017-12-25T03:38:45.846Z,101011.52
2017-12-25T03:43:51.782Z,101021.98
2017-12-25T03:46:20.691Z,101018.14
2017-12-25T03:48:50.623Z,101022.86
2017-12-25T03:51:19.577Z,101030.91
2017-12-25T03:53:48.573Z,101029.80
2017-12-25T03:56:17.718Z,101023.78
2017-12-25T03:58:46.770Z,101023.20
2017-12-25T04:01:19.399Z,101014.13
2017-12-25T04:03:49.261Z,101012.85
2017-12-25T04:06:18.505Z,101020.50
2017-12-25T04:08:50.106Z,101018.09
2017-12-25T04:11:19.208Z,101021.85
2017-12-25T04:13:48.193Z,101026.52
2017-12-25T04:16:17.194Z,101021.34
2017-12-25T04:18:47.859Z,101025.62
2017-12-25T04:21:16.826Z,101030.59
2017-12-25T04:23:46.942Z,101028.44
2017-12-25T04:26:16.912Z,101031.66
2017-12-25T04:28:45.849Z,101031.32
2017-12-25T04:31:16.590Z,101036.45
2017-12-25T04:33:45.673Z,101037.44
2017-12-25T04:36:14.674Z,101037.06
2017-12-25T04:38:46.331Z,101033.78
2017-12-25T04:41:17.960Z,101031.22
2017-12-25T04:43:49.714Z,101030.76
2017-12-25T04:46:18.669Z,101036.21
2017-12-25T04:48:49.933Z,101040.44
2017-12-25T04:51:19.700Z,101041.06
2017-12-25T04:53:49.451Z,101037.34
2017-12-25T04:56:18.401Z,101035.52
2017-12-25T04:58:47.638Z,101026.78
2017-12-25T05:01:16.538Z,101029.75
2017-12-25T05:03:46.510Z,101022.02
2017-12-25T05:06:17.509Z,101025.04
2017-12-25T05:08:47.507Z,101030.19
2017-12-25T05:11:16.433Z,101031.86
2017-12-25T05:13:46.416Z,101037.87
2017-12-25T05:16:15.410Z,101046.39
2017-12-25T05:18:44.409Z,101043.55
2017-12-25T05:21:15.781Z,101047.70
2017-12-25T05:23:44.910Z,101043.52
2017-12-25T05:26:13.889Z,101048.69
2017-12-25T05:28:42.910Z,101049.90
2017-12-25T05:31:12.605Z,101053.83
2017-12-25T05:33:42.315Z,101055.51
2017-12-25T05:36:12.444Z,101061.81
2017-12-25T05:38:42.161Z,101061.32
2017-12-25T05:41:11.185Z,101060.88
2017-12-25T05:43:42.134Z,101058.33
2017-12-25T05:46:12.489Z,101057.61
2017-12-25T05:48:41.438Z,101053.48
2017-12-25T05:53:44.803Z,101043.80
2017-12-25T05:56:14.012Z,101045.44
2017-12-25T05:58:44.747Z,101047.57
2017-12-25T06:01:13.771Z,101046.45
2017-12-25T06:03:43.772Z,101046.48
2017-12-25T06:06:13.865Z,101043.69
2017-12-25T06:08:43.341Z,101036.54
2017-12-25T06:11:13.502Z,101038.38
2017-12-25T06:13:42.592Z,101041.02
2017-12-25T06:16:11.777Z,101037.02
2017-12-25T06:18:40.981Z,101035.00
2017-12-25T06:21:10.091Z,101039.22
2017-12-25T06:23:39.160Z,101040.27
2017-12-25T06:26:09.102Z,101036.55
2017-12-25T06:28:39.165Z,101031.14
2017-12-25T06:31:10.250Z,101037.17
2017-12-25T06:33:41.866Z,101030.09
2017-12-25T06:36:11.316Z,101035.67
2017-12-25T06:38:41.113Z,101032.01
2017-12-25T06:41:12.445Z,101040.15
2017-12-25T06:43:41.639Z,101041.96
2017-12-25T06:46:11.467Z,101050.41
2017-12-25T06:48:43.668Z,101050.52
2017-12-25T06:51:13.718Z,101050.14
2017-12-25T06:53:43.581Z,101054.46
2017-12-25T06:56:13.617Z,101060.46
2017-12-25T06:58:42.636Z,101066.75
2017-12-25T07:01:12.541Z,101063.95
2017-12-25T07:03:41.860Z,101068.30
2017-12-25T07:06:12.502Z,101068.38
2017-12-25T07:08:42.033Z,101072.64
2017-12-25T07:13:45.718Z,101071.83
2017-12-25T07:16:14.819Z,101073.17
2017-12-25T07:18:44.049Z,101077.45
2017-12-25T07:21:17.413Z,101071.13
2017-12-25T07:23:47.363Z,101071.14
2017-12-25T07:26:16.359Z,101075.80
2017-12-25T07:28:47.202Z,101076.70
2017-12-25T07:31:19.131Z,101081.83
2017-12-25T07:33:48.220Z,101087.00
2017-12-25T07:36:17.304Z,101093.00
2017-12-25T07:38:47.267Z,101086.28
2017-12-25T07:41:17.142Z,101093.57
2017-12-25T07:43:46.284Z,101092.38
2017-12-25T07:46:15.333Z,101089.45
2017-12-25T07:48:45.369Z,101083.47
2017-12-25T07:51:14.293Z,101085.19
2017-12-25T07:53:44.296Z,101081.06
2017-12-25T07:56:13.551Z,101084.08
2017-12-25T07:58:42.667Z,101082.38
2017-12-25T08:01:15.336Z,101083.30
2017-12-25T08:03:45.374Z,101092.73
2017-12-25T08:06:14.486Z,101091.91
2017-12-25T08:08:45.903Z,101080.94
2017-12-25T08:11:14.898Z,101086.95
2017-12-25T08:13:44.740Z,101078.05
2017-12-25T08:18:48.171Z,101062.05
2017-12-25T08:21:18.977Z,101067.63
2017-12-25T08:23:50.107Z,101064.67
2017-12-25T08:26:19.451Z,101068.48
2017-12-25T08:28:49.584Z,101064.30
2017-12-25T08:31:23.952Z,101064.41
2017-12-25T08:33:53.430Z,101058.15
2017-12-25T08:36:23.939Z,101048.45
2017-12-25T08:38:54.154Z,101055.23
2017-12-25T08:41:23.243Z,101059.52
2017-12-25T08:43:52.466Z,101056.62
2017-12-25T08:46:24.155Z,101054.52
2017-12-25T08:48:53.251Z,101054.52
2017-12-25T08:51:23.028Z,101049.03
2017-12-25T08:53:55.753Z,101052.06
2017-12-25T08:56:25.080Z,101041.88
2017-12-25T08:58:55.430Z,101045.30
2017-12-25T09:01:24.529Z,101044.92
2017-12-25T09:03:53.647Z,101041.11
2017-12-25T09:06:23.201Z,101029.67
2017-12-25T09:08:54.090Z,101019.11
2017-12-25T09:11:23.309Z,101022.50
2017-12-25T09:13:52.300Z,101011.05
2017-12-25T09:16:23.116Z,101020.84
2017-12-25T09:18:53.906Z,101003.86
2017-12-25T09:21:23.085Z,100999.64
2017-12-25T09:23:52.166Z,101002.19
2017-12-25T09:26:22.482Z,100998.78
2017-12-25T09:28:51.739Z,100990.30
2017-12-25T09:31:24.471Z,100990.30
2017-12-25T09:33:53.610Z,100989.84
2017-12-25T09:36:25.026Z,100977.13
2017-12-25T09:41:29.462Z,100969.89
2017-12-25T09:44:00.259Z,100968.19
2017-12-25T09:46:29.437Z,100953.28
2017-12-25T09:48:59.753Z,100950.30
2017-12-25T09:51:29.879Z,100943.06
2017-12-25T09:54:00.032Z,100945.98
2017-12-25T09:56:29.360Z,100944.70
2017-12-25T09:58:58.615Z,100951.05
2017-12-25T10:01:28.209Z,100944.23
2017-12-25T10:03:58.630Z,100941.63
2017-12-25T10:06:31.614Z,100933.10
2017-12-25T10:09:00.831Z,100919.02
2017-12-25T10:11:30.795Z,100919.05
2017-12-25T10:13:59.987Z,100913.86
2017-12-25T10:16:30.016Z,100914.23
2017-12-25T10:18:59.060Z,100915.47
2017-12-25T10:21:30.006Z,100909.89
2017-12-25T10:23:59.133Z,100903.46
2017-12-25T10:26:30.076Z,100893.63
2017-12-25T10:29:00.190Z,100903.77
2017-12-25T10:31:29.489Z,100893.94
2017-12-25T10:33:59.660Z,100886.16
2017-12-25T10:36:29.585Z,100887.35
2017-12-25T10:38:58.941Z,100886.41
2017-12-25T10:41:28.289Z,100878.65
2017-12-25T10:43:57.614Z,100885.82
2017-12-25T10:46:26.630Z,100890.83
2017-12-25T10:48:56.232Z,100887.35
2017-12-25T10:51:25.639Z,100887.33
2017-12-25T10:53:55.785Z,100884.69
2017-12-25T10:56:25.484Z,100887.15
2017-12-25T11:01:30.029Z,100887.02
2017-12-25T11:04:00.179Z,100882.30
2017-12-25T11:06:29.595Z,100885.25
2017-12-25T11:08:58.588Z,100889.04
2017-12-25T11:11:27.690Z,100883.44
2017-12-25T11:13:57.602Z,100880.87
2017-12-25T11:16:28.682Z,100876.88
2017-12-25T11:18:58.662Z,100870.01
2017-12-25T11:21:28.683Z,100877.20
2017-12-25T11:23:58.825Z,100872.37
2017-12-25T11:26:29.495Z,100868.11
2017-12-25T11:28:58.573Z,100861.23
2017-12-25T11:31:28.438Z,100856.55
2017-12-25T11:33:58.921Z,100853.02
2017-12-25T11:36:29.194Z,100861.03
2017-12-25T11:38:58.213Z,100852.45
2017-12-25T11:41:31.465Z,100848.13
2017-12-25T11:44:00.440Z,100856.20
2017-12-25T11:46:29.392Z,100849.36
2017-12-25T11:49:00.135Z,100847.98
2017-12-25T11:51:31.144Z,100850.48
2017-12-25T11:54:00.134Z,100851.73
2017-12-25T11:59:03.961Z,100850.83
2017-12-25T12:01:33.874Z,100855.09
2017-12-25T12:04:03.520Z,100849.91
2017-12-25T12:06:33.861Z,100843.50
2017-12-25T12:09:03.257Z,100839.63
2017-12-25T12:11:32.309Z,100837.80
2017-12-25T12:14:03.221Z,100838.23
2017-12-25T12:16:33.301Z,100835.23
2017-12-25T12:19:02.628Z,100843.35
2017-12-25T12:21:31.915Z,100846.36
2017-12-25T12:24:07.984Z,100845.95
2017-12-25T12:26:37.996Z,100858.84
2017-12-25T12:29:07.080Z,100846.02
2017-12-25T12:31:37.540Z,100849.02
2017-12-25T12:34:07.439Z,100855.17
2017-12-25T12:36:37.440Z,100861.64
2017-12-25T12:39:06.750Z,100860.22
2017-12-25T12:41:38.575Z,100858.48
2017-12-25T12:44:07.559Z,100865.34
2017-12-25T12:46:37.381Z,100861.13
2017-12-25T12:49:08.841Z,100868.62
2017-12-25T12:51:37.844Z,100884.97
2017-12-25T12:54:06.910Z,100886.64
2017-12-25T12:56:37.873Z,100881.55
2017-12-25T12:59:07.639Z,100885.88
2017-12-25T13:01:36.886Z,100882.95
2017-12-25T13:04:07.593Z,100879.52
2017-12-25T13:06:37.714Z,100880.56
2017-12-25T13:09:06.839Z,100890.45
2017-12-25T13:11:36.233Z,100892.98
2017-12-25T13:14:07.420Z,100892.63
2017-12-25T13:19:12.805Z,100893.55
2017-12-25T13:21:41.853Z,100894.84
2017-12-25T13:24:13.818Z,100888.41
2017-12-25T13:26:43.132Z,100886.36
2017-12-25T13:29:12.163Z,100894.50
2017-12-25T13:31:42.797Z,100893.30
2017-12-25T13:34:12.673Z,100886.47
2017-12-25T13:36:42.634Z,100895.02
2017-12-25T13:39:11.712Z,100893.73
2017-12-25T13:41:40.712Z,100901.52
2017-12-25T13:44:09.820Z,100897.72
2017-12-25T13:46:40.658Z,100899.91
2017-12-25T13:49:09.894Z,100904.25
2017-12-25T13:51:40.277Z,100912.52
2017-12-25T13:54:09.338Z,100909.52
2017-12-25T13:56:38.421Z,100910.47
2017-12-25T13:59:07.370Z,100918.63
2017-12-25T14:01:37.525Z,100907.48
2017-12-25T14:04:06.524Z,100916.95
2017-12-25T14:06:35.509Z,100911.40
2017-12-25T14:11:39.812Z,100915.47
2017-12-25T14:14:09.009Z,100908.19
2017-12-25T14:16:38.843Z,100909.03
2017-12-25T14:19:07.750Z,100909.16
2017-12-25T14:21:36.644Z,100909.67
2017-12-25T14:24:06.764Z,100909.75
2017-12-25T14:26:35.823Z,100915.00
2017-12-25T14:29:05.064Z,100907.83
2017-12-25T14:31:34.882Z,100892.53
2017-12-25T14:34:04.093Z,100892.55
2017-12-25T14:36:33.066Z,100885.00
2017-12-25T14:39:02.121Z,100884.23
2017-12-25T14:41:31.268Z,100900.48
2017-12-25T14:44:00.452Z,100889.92
2017-12-25T14:46:30.328Z,100888.23
2017-12-25T14:48:59.476Z,100886.47
2017-12-25T14:51:31.291Z,100888.69
2017-12-25T14:54:01.420Z,100888.30
2017-12-25T14:56:30.404Z,100890.86
2017-12-25T14:59:00.320Z,100893.36
2017-12-25T15:01:29.625Z,100898.89
2017-12-25T15:03:58.716Z,100907.86
2017-12-25T15:06:29.464Z,100915.59
2017-12-25T15:08:59.774Z,100919.50
2017-12-25T15:11:29.080Z,100926.75
2017-12-25T15:14:01.235Z,100943.80
2017-12-25T15:16:30.379Z,100949.75
2017-12-25T15:18:59.368Z,100954.89
2017-12-25T15:21:29.408Z,100966.86
2017-12-25T15:23:59.308Z,100967.34
2017-12-25T15:26:29.281Z,100985.66
2017-12-25T15:29:00.840Z,100986.63
2017-12-25T15:31:30.039Z,101013.45
2017-12-25T15:33:59.890Z,101024.13
2017-12-25T15:36:28.946Z,101031.80
2017-12-25T15:38:58.248Z,101031.83
2017-12-25T15:41:27.848Z,101040.72
2017-12-25T15:43:57.850Z,101044.59
2017-12-25T15:46:27.942Z,101049.70
2017-12-25T15:48:56.821Z,101052.67
2017-12-25T15:51:28.777Z,101055.69
2017-12-25T15:53:58.248Z,101060.80
2017-12-25T15:56:27.243Z,101066.34
2017-12-25T15:58:59.660Z,101065.06
2017-12-25T16:01:29.433Z,101064.64
2017-12-25T16:03:58.936Z,101065.06
2017-12-25T16:06:28.754Z,101064.22
2017-12-25T16:08:58.398Z,101073.57
2017-12-25T16:11:28.442Z,101073.10
2017-12-25T16:13:59.145Z,101076.93
2017-12-25T16:16:29.189Z,101080.30
2017-12-25T16:18:58.456Z,101088.34
2017-12-25T16:21:29.304Z,101090.87
2017-12-25T16:23:58.380Z,101094.65
2017-12-25T16:26:28.380Z,101093.73
2017-12-25T16:28:57.664Z,101098.39
2017-12-25T16:31:27.913Z,101106.38
2017-12-25T16:33:57.019Z,101110.59
2017-12-25T16:36:28.215Z,101117.72
2017-12-25T16:38:58.168Z,101122.78
2017-12-25T16:41:28.319Z,101116.80
2017-12-25T16:43:59.298Z,101118.39
2017-12-25T16:46:29.001Z,101122.48
2017-12-25T16:48:58.041Z,101134.70
2017-12-25T16:51:28.185Z,101135.88
2017-12-25T16:53:57.700Z,101131.92
2017-12-25T16:56:26.692Z,101142.02
2017-12-25T16:58:55.782Z,101136.89
2017-12-25T17:01:24.856Z,101146.09
2017-12-25T17:03:53.931Z,101146.32
2017-12-25T17:06:25.336Z,101141.97
2017-12-25T17:08:54.377Z,101150.34
2017-12-25T17:11:24.260Z,101151.94
2017-12-25T17:13:55.001Z,101146.75
2017-12-25T17:16:24.238Z,101150.02
2017-12-25T17:18:54.236Z,101144.81
2017-12-25T17:23:58.420Z,101150.91
2017-12-25T17:26:28.289Z,101147.30
2017-12-25T17:28:58.144Z,101149.61
2017-12-25T17:31:28.014Z,101148.06
2017-12-25T17:33:57.862Z,101149.90
2017-12-25T17:36:27.176Z,101156.28
2017-12-25T17:38:56.688Z,101151.66
2017-12-25T17:41:26.379Z,101158.92
2017-12-25T17:43:56.262Z,101157.75
2017-12-25T17:46:25.469Z,101155.31
2017-12-25T17:48:54.955Z,101160.07
2017-12-25T17:51:24.276Z,101146.93
2017-12-25T17:53:53.333Z,101148.78
2017-12-25T17:56:22.458Z,101154.38
2017-12-25T17:58:51.597Z,101156.08
2017-12-25T18:01:21.378Z,101158.19
2017-12-25T18:03:50.372Z,101162.03
2017-12-25T18:06:19.557Z,101159.06
2017-12-25T18:08:48.449Z,101170.38
2017-12-25T18:11:18.469Z,101168.66
2017-12-25T18:13:48.531Z,101174.54
2017-12-25T18:16:17.693Z,101172.75
2017-12-25T18:18:47.590Z,101174.84
2017-12-25T18:21:19.356Z,101178.20
2017-12-25T18:23:49.241Z,101173.50
2017-12-25T18:26:19.801Z,101163.64
2017-12-25T18:28:50.746Z,101159.36
2017-12-25T18:31:19.738Z,101158.91
2017-12-25T18:33:49.589Z,101157.45
2017-12-25T18:36:20.285Z,101148.95
2017-12-25T18:38:49.224Z,101149.02
2017-12-25T18:41:18.124Z,101145.72
2017-12-25T18:43:47.169Z,101151.77
2017-12-25T18:46:16.564Z,101149.29
2017-12-25T18:48:45.564Z,101154.90
2017-12-25T18:51:15.475Z,101160.48
2017-12-25T18:53:45.440Z,101155.47
2017-12-25T18:56:14.423Z,101161.85
2017-12-25T18:58:44.296Z,101162.19
2017-12-25T19:01:14.934Z,101174.03
2017-12-25T19:03:43.932Z,101174.47
2017-12-25T19:06:13.210Z,101172.28
2017-12-25T19:08:42.181Z,101177.23
2017-12-25T19:11:11.140Z,101182.23
2017-12-25T19:13:40.915Z,101180.39
2017-12-25T19:16:09.860Z,101190.10
2017-12-25T19:18:38.838Z,101185.28
2017-12-25T19:21:08.112Z,101182.28
2017-12-25T19:23:37.356Z,101189.41
2017-12-25T19:26:07.184Z,101186.33
2017-12-25T19:28:36.981Z,101189.60
2017-12-25T19:31:06.850Z,101190.30
2017-12-25T19:33:35.945Z,101189.84
2017-12-25T19:36:04.980Z,101185.20
2017-12-25T19:38:35.060Z,101188.62
2017-12-25T19:41:04.954Z,101191.23
2017-12-25T19:43:34.830Z,101191.50
2017-12-25T19:46:06.792Z,101194.54
2017-12-25T19:48:35.838Z,101194.91
2017-12-25T19:51:04.822Z,101199.11
2017-12-25T19:53:33.773Z,101203.75
2017-12-25T19:56:04.613Z,101199.93
2017-12-25T19:58:36.207Z,101209.13
2017-12-25T20:01:05.395Z,101205.59
2017-12-25T20:03:34.398Z,101208.88
2017-12-25T20:06:03.391Z,101223.13
2017-12-25T20:08:32.389Z,101228.11
2017-12-25T20:11:01.438Z,101231.88
2017-12-25T20:13:32.072Z,101234.27
2017-12-25T20:16:02.707Z,101233.84
2017-12-25T20:18:33.543Z,101239.30
2017-12-25T20:21:04.995Z,101243.02
2017-12-25T20:23:34.845Z,101251.98
2017-12-25T20:26:03.902Z,101237.43
2017-12-25T20:28:36.076Z,101235.02
2017-12-25T20:31:05.169Z,101240.58
2017-12-25T20:33:35.993Z,101236.94
2017-12-25T20:36:05.819Z,101234.16
2017-12-25T20:38:34.857Z,101235.97
2017-12-25T20:41:03.959Z,101243.97
2017-12-25T20:46:08.262Z,101247.34
2017-12-25T20:48:37.238Z,101250.13
2017-12-25T20:51:06.233Z,101246.87
2017-12-25T20:53:36.259Z,101245.20
2017-12-25T20:56:05.344Z,101254.09
2017-12-25T20:58:34.297Z,101250.28
2017-12-25T21:01:06.199Z,101243.08
2017-12-25T21:03:35.243Z,101245.16
2017-12-25T21:06:04.224Z,101249.42
2017-12-25T21:08:34.101Z,101246.13
2017-12-25T21:11:03.402Z,101248.66
2017-12-25T21:13:32.515Z,101240.52
2017-12-25T21:16:01.564Z,101240.87
2017-12-25T21:18:34.540Z,101243.27
2017-12-25T21:21:03.574Z,101241.48
2017-12-25T21:23:32.612Z,101243.03
2017-12-25T21:26:03.504Z,101247.67
2017-12-25T21:28:33.319Z,101246.35
2017-12-25T21:31:03.645Z,101255.18
2017-12-25T21:33:33.605Z,101251.34
2017-12-25T21:36:02.716Z,101255.03
2017-12-25T21:38:31.689Z,101258.67
2017-12-25T21:41:01.773Z,101261.83
2017-12-25T21:43:33.605Z,101258.77
2017-12-25T21:46:03.592Z,101263.69
2017-12-25T21:48:32.682Z,101255.99
2017-12-25T21:51:01.634Z,101260.89
2017-12-25T21:53:32.575Z,101260.23
2017-12-25T21:56:01.517Z,101252.36
2017-12-25T21:58:30.680Z,101248.31
2017-12-25T22:01:01.708Z,101252.85
2017-12-25T22:03:31.620Z,101252.81
2017-12-25T22:06:03.309Z,101255.36
2017-12-25T22:08:34.709Z,101251.85
2017-12-25T22:11:03.790Z,101254.20
2017-12-25T22:13:33.896Z,101255.34
2017-12-25T22:16:03.087Z,101255.54
2017-12-25T22:18:32.188Z,101248.74
2017-12-25T22:21:01.583Z,101246.66
2017-12-25T22:23:31.356Z,101242.07
2017-12-25T22:26:00.450Z,101247.31
2017-12-25T22:28:32.136Z,101255.71
2017-12-25T22:31:01.140Z,101249.66
2017-12-25T22:33:30.148Z,101248.57
2017-12-25T22:36:01.269Z,101247.84
2017-12-25T22:38:30.354Z,101247.69
2017-12-25T22:41:00.551Z,101249.70
2017-12-25T22:43:36.615Z,101241.60
2017-12-25T22:46:06.482Z,101242.32
2017-12-25T22:48:36.652Z,101243.60
2017-12-25T22:51:09.733Z,101237.66
2017-12-25T22:53:38.679Z,101231.59
2017-12-25T22:56:07.627Z,101231.97
2017-12-25T22:58:40.453Z,101220.57
2017-12-25T23:01:15.566Z,101233.66
2017-12-25T23:03:44.657Z,101233.77
2017-12-25T23:06:14.624Z,101226.05
2017-12-25T23:08:43.719Z,101221.82
2017-12-25T23:13:50.034Z,101225.12
2017-12-25T23:16:19.148Z,101221.72
2017-12-25T23:18:49.310Z,101217.41
2017-12-25T23:21:19.245Z,101213.92
2017-12-25T23:23:48.371Z,101215.05
2017-12-25T23:26:18.234Z,101218.92
2017-12-25T23:28:47.287Z,101224.98
2017-12-25T23:31:16.431Z,101226.86
2017-12-25T23:33:48.350Z,101226.86
2017-12-25T23:36:17.545Z,101227.94
2017-12-25T23:38:47.270Z,101234.56
2017-12-25T23:41:19.324Z,101229.48
2017-12-25T23:43:49.379Z,101231.64
2017-12-25T23:46:18.235Z,101232.55
2017-12-25T23:48:49.072Z,101236.17
2017-12-25T23:51:17.958Z,101233.73
2017-12-25T23:53:48.832Z,101240.06
2017-12-25T23:56:18.678Z,101240.34
2017-12-25T23:58:47.706Z,101239.63
